Time;durP1;ratioP1;P1;durP2;ratioP2;P2;SDS_P1;SDS_P2;PMS_P1;PMS_P2;Temp;Humidity;BMP_temperature;BMP_pressure;BME280_temperature;BME280_humidity;BME280_pressure;Samples;Min_cycle;Max_cycle;Signal;HPM_P1;HPM_P2
2021/12/22 00:00:55;;;;;;;;;;;-3.20;99.90;;;;;;5034018;28;20309;-80
2021/12/22 00:03:21;;;;;;;;;;;-3.10;99.90;;;;;;5034889;28;19914;-80
2021/12/22 00:05:48;;;;;;;;;;;-3.20;99.90;;;;;;5035461;28;20011;-80
2021/12/22 00:08:14;;;;;;;;;;;-3.20;99.90;;;;;;5034613;28;19921;-80
2021/12/22 00:10:41;;;;;;;;;;;-3.00;99.90;;;;;;5035188;28;19960;-81
2021/12/22 00:13:06;;;;;;;;;;;-2.90;99.90;;;;;;5035045;28;19925;-80
2021/12/22 00:15:32;;;;;;;;;;;-2.80;99.90;;;;;;5034653;28;19925;-80
2021/12/22 00:17:58;;;;;;;;;;;-2.80;99.90;;;;;;5034743;28;19917;-80
2021/12/22 00:20:24;;;;;;;;;;;-2.80;99.90;;;;;;5034273;28;20398;-80
2021/12/22 00:22:49;;;;;;;;;;;-2.90;99.90;;;;;;5034896;28;19917;-80
2021/12/22 00:25:16;;;;;;;;;;;-2.90;99.90;;;;;;5034535;28;19913;-80
2021/12/22 00:27:42;;;;;;;;;;;-2.90;99.90;;;;;;5027228;28;19943;-80
2021/12/22 00:30:08;;;;;;;;;;;-2.90;99.90;;;;;;5026856;28;19920;-79
2021/12/22 00:32:36;;;;;;;;;;;-2.90;99.90;;;;;;5030916;28;19971;-78
2021/12/22 00:35:02;;;;;;;;;;;-2.90;99.90;;;;;;5026254;28;19927;-80
2021/12/22 00:37:29;;;;;;;;;;;-2.90;99.90;;;;;;5030158;28;19921;-80
2021/12/22 00:39:55;;;;;;;;;;;-2.90;99.90;;;;;;5030359;28;19960;-79
2021/12/22 00:42:21;;;;;;;;;;;-3.00;99.90;;;;;;5023554;28;20303;-80
2021/12/22 00:44:50;;;;;;;;;;;-3.00;99.90;;;;;;5023748;28;19921;-80
2021/12/22 00:47:17;;;;;;;;;;;-3.10;99.90;;;;;;5024367;28;20212;-80
2021/12/22 00:49:43;;;;;;;;;;;-3.10;99.90;;;;;;5032045;28;20548;-80
2021/12/22 00:52:08;;;;;;;;;;;-3.20;99.90;;;;;;5030505;28;20055;-80
2021/12/22 00:54:34;;;;;;;;;;;-3.20;99.90;;;;;;5031342;28;19921;-80
2021/12/22 00:57:04;;;;;;;;;;;-3.20;99.90;;;;;;5035079;28;19923;-80
2021/12/22 00:59:31;;;;;;;;;;;-3.20;99.90;;;;;;5028426;28;21358;-80
2021/12/22 01:01:57;;;;;;;;;;;-3.30;99.90;;;;;;5030123;28;19917;-80
2021/12/22 01:04:22;;;;;;;;;;;-3.30;99.90;;;;;;5029446;28;19936;-80
2021/12/22 01:06:48;;;;;;;;;;;-3.40;99.90;;;;;;5031660;28;20014;-80
2021/12/22 01:09:13;;;;;;;;;;;-3.40;99.90;;;;;;5026495;28;19956;-80
2021/12/22 01:11:39;;;;;;;;;;;-3.40;99.90;;;;;;5031362;28;19921;-80
2021/12/22 01:14:05;;;;;;;;;;;-3.30;99.90;;;;;;5029429;28;19913;-80
2021/12/22 01:16:30;;;;;;;;;;;-3.30;99.90;;;;;;5034581;28;19998;-80
2021/12/22 01:18:59;;;;;;;;;;;-3.30;99.90;;;;;;5032829;28;19928;-79
2021/12/22 01:21:36;;;;;;;;;;;-3.20;99.90;;;;;;5036454;28;19975;-80
2021/12/22 01:24:13;;;;;;;;;;;-3.30;99.90;;;;;;5037992;28;19917;-80
2021/12/22 01:26:44;;;;;;;;;;;-3.30;99.90;;;;;;5037822;28;19953;-80
2021/12/22 01:29:11;;;;;;;;;;;-3.30;99.90;;;;;;5038195;28;19917;-79
2021/12/22 01:31:38;;;;;;;;;;;-3.20;99.90;;;;;;5038260;28;19960;-80
2021/12/22 01:34:04;;;;;;;;;;;-3.20;99.90;;;;;;5028833;28;19944;-78
2021/12/22 01:36:30;;;;;;;;;;;-3.20;99.90;;;;;;5038497;28;19968;-79
2021/12/22 01:38:55;;;;;;;;;;;-3.20;99.90;;;;;;5037542;28;19913;-80
2021/12/22 01:41:21;;;;;;;;;;;-3.20;99.90;;;;;;5046537;28;19924;-80
2021/12/22 01:43:48;;;;;;;;;;;-3.20;99.90;;;;;;5027074;28;19916;-79
2021/12/22 01:49:09;;;;;;;;;;;-3.20;99.90;;;;;;5036834;28;19967;-80
2021/12/22 01:49:10;;;;;;;;;;;-3.20;99.90;;;;;;5037726;28;19921;-79
2021/12/22 01:51:41;;;;;;;;;;;-3.30;99.90;;;;;;5037596;28;20330;-80
2021/12/22 01:54:13;;;;;;;;;;;-3.30;99.90;;;;;;5036129;28;20031;-81
2021/12/22 01:56:38;;;;;;;;;;;-3.30;99.90;;;;;;5034603;28;19917;-80
2021/12/22 01:59:05;;;;;;;;;;;-3.40;99.90;;;;;;5036422;28;19917;-77
2021/12/22 02:01:34;;;;;;;;;;;-3.50;99.90;;;;;;5036425;28;19917;-80
2021/12/22 02:04:01;;;;;;;;;;;-3.60;99.90;;;;;;5037496;28;19956;-80
2021/12/22 02:06:27;;;;;;;;;;;-3.50;99.90;;;;;;5035918;28;20066;-80
2021/12/22 02:08:53;;;;;;;;;;;-3.60;99.90;;;;;;5037042;28;20353;-80
2021/12/22 02:11:19;;;;;;;;;;;-3.60;99.90;;;;;;5037263;28;19916;-80
2021/12/22 02:13:50;;;;;;;;;;;-3.50;99.90;;;;;;5037571;28;19917;-79
2021/12/22 02:16:17;;;;;;;;;;;-3.50;99.90;;;;;;5037052;28;19917;-78
2021/12/22 02:18:47;;;;;;;;;;;-3.50;99.90;;;;;;5037234;28;19952;-80
2021/12/22 02:21:14;;;;;;;;;;;-3.50;99.90;;;;;;5034468;28;19928;-80
2021/12/22 02:23:40;;;;;;;;;;;-3.40;99.90;;;;;;5030506;28;20007;-80
2021/12/22 02:26:14;;;;;;;;;;;-3.50;99.90;;;;;;5036283;28;19917;-80
2021/12/22 02:28:45;;;;;;;;;;;-3.40;99.90;;;;;;5037039;28;20060;-81
2021/12/22 02:31:14;;;;;;;;;;;-3.40;99.90;;;;;;5036860;28;19920;-80
2021/12/22 02:33:42;;;;;;;;;;;-3.40;99.90;;;;;;5037230;28;19913;-80
2021/12/22 02:36:11;;;;;;;;;;;-3.40;99.90;;;;;;5035920;28;20022;-79
2021/12/22 02:38:41;;;;;;;;;;;-3.40;99.90;;;;;;5037063;28;19928;-80
2021/12/22 02:41:09;;;;;;;;;;;-3.40;99.90;;;;;;5036839;28;19967;-80
2021/12/22 02:43:42;;;;;;;;;;;-3.50;99.90;;;;;;5043432;28;19921;-77
2021/12/22 02:46:08;;;;;;;;;;;-3.40;99.90;;;;;;5026198;28;19925;-81
2021/12/22 02:48:33;;;;;;;;;;;-3.40;99.90;;;;;;5036235;28;19921;-80
2021/12/22 02:51:03;;;;;;;;;;;-3.40;99.90;;;;;;5036718;28;19935;-80
2021/12/22 02:56:57;;;;;;;;;;;-3.60;99.90;;;;;;5037042;28;19924;-80
2021/12/22 03:04:06;;;;;;;;;;;-4.10;99.90;;;;;;5036779;28;19916;-81
2021/12/22 03:06:39;;;;;;;;;;;-4.10;99.90;;;;;;5035099;28;19917;-81
2021/12/22 03:09:19;;;;;;;;;;;-4.10;99.90;;;;;;5042788;28;20012;-76
2021/12/22 03:11:45;;;;;;;;;;;-4.10;99.90;;;;;;5035981;28;19917;-79
2021/12/22 03:14:11;;;;;;;;;;;-4.20;99.90;;;;;;5035205;28;19921;-80
2021/12/22 03:16:37;;;;;;;;;;;-4.30;99.90;;;;;;5042711;28;20339;-80
2021/12/22 03:19:03;;;;;;;;;;;-4.30;99.90;;;;;;5034700;28;19960;-81
2021/12/22 03:21:29;;;;;;;;;;;-4.30;99.90;;;;;;5036253;28;20326;-80
2021/12/22 03:23:55;;;;;;;;;;;-4.20;99.90;;;;;;5035357;28;19917;-76
2021/12/22 03:26:23;;;;;;;;;;;-4.30;99.90;;;;;;5034813;28;19917;-81
2021/12/22 03:28:49;;;;;;;;;;;-4.30;99.90;;;;;;5029708;28;19959;-81
2021/12/22 03:31:15;;;;;;;;;;;-4.20;99.90;;;;;;5034793;28;19917;-79
2021/12/22 03:33:41;;;;;;;;;;;-4.20;99.90;;;;;;5035996;28;20551;-80
2021/12/22 03:36:07;;;;;;;;;;;-4.20;99.90;;;;;;5035721;28;19923;-80
2021/12/22 03:38:34;;;;;;;;;;;-4.20;99.90;;;;;;5035765;28;20036;-80
2021/12/22 03:41:00;;;;;;;;;;;-4.20;99.90;;;;;;5035459;28;19975;-80
2021/12/22 03:43:25;;;;;;;;;;;-4.20;99.90;;;;;;5033912;28;19971;-79
2021/12/22 03:45:51;;;;;;;;;;;-4.30;99.90;;;;;;5035689;28;19917;-80
2021/12/22 03:48:18;;;;;;;;;;;-4.30;99.90;;;;;;5034320;28;19913;-79
2021/12/22 03:50:44;;;;;;;;;;;-4.40;99.90;;;;;;5034300;28;19955;-80
2021/12/22 03:53:10;;;;;;;;;;;-4.30;99.90;;;;;;5034493;28;19909;-80
2021/12/22 03:55:36;;;;;;;;;;;-4.30;99.90;;;;;;5034007;28;19952;-80
2021/12/22 03:58:01;;;;;;;;;;;-4.30;99.90;;;;;;5035441;28;20343;-80
2021/12/22 04:00:27;;;;;;;;;;;-4.30;99.90;;;;;;5033011;28;20012;-80
2021/12/22 04:02:53;;;;;;;;;;;-4.20;99.90;;;;;;5023338;28;19920;-80
2021/12/22 04:05:19;;;;;;;;;;;-4.30;99.90;;;;;;5032442;28;19917;-80
2021/12/22 04:07:45;;;;;;;;;;;-4.30;99.90;;;;;;5032222;28;19928;-76
2021/12/22 04:10:20;;;;;;;;;;;-4.30;99.90;;;;;;5031050;28;19913;-80
2021/12/22 04:12:47;;;;;;;;;;;-4.30;99.90;;;;;;5029545;28;19970;-80
2021/12/22 04:15:13;;;;;;;;;;;-4.20;99.90;;;;;;5032034;28;19925;-79
2021/12/22 04:17:39;;;;;;;;;;;-4.20;99.90;;;;;;5040456;28;20320;-81
2021/12/22 04:20:05;;;;;;;;;;;-4.20;99.90;;;;;;5032105;28;19921;-79
2021/12/22 04:22:30;;;;;;;;;;;-4.20;99.90;;;;;;5032640;28;19913;-81
2021/12/22 04:24:56;;;;;;;;;;;-4.10;99.90;;;;;;5032088;28;20372;-80
2021/12/22 04:27:22;;;;;;;;;;;-4.10;99.90;;;;;;5032294;28;19924;-80
2021/12/22 04:29:47;;;;;;;;;;;-4.10;99.90;;;;;;5029266;28;19913;-81
2021/12/22 04:32:13;;;;;;;;;;;-4.00;99.90;;;;;;5034839;28;20211;-81
2021/12/22 04:34:38;;;;;;;;;;;-4.00;99.90;;;;;;5032830;28;19913;-81
2021/12/22 04:37:04;;;;;;;;;;;-3.90;99.90;;;;;;5031534;28;19921;-80
2021/12/22 04:39:32;;;;;;;;;;;-3.90;99.90;;;;;;5033757;28;19927;-80
2021/12/22 04:41:59;;;;;;;;;;;-3.80;99.90;;;;;;5030558;28;19917;-80
2021/12/22 04:44:24;;;;;;;;;;;-3.70;99.90;;;;;;5032793;28;19964;-78
2021/12/22 04:46:50;;;;;;;;;;;-3.70;99.90;;;;;;5033690;28;20000;-80
2021/12/22 04:49:15;;;;;;;;;;;-3.70;99.90;;;;;;5031338;28;19961;-79
2021/12/22 04:51:48;;;;;;;;;;;-3.60;99.90;;;;;;5033102;28;20394;-81
2021/12/22 04:54:20;;;;;;;;;;;-3.60;99.90;;;;;;5042221;28;19917;-79
2021/12/22 04:56:45;;;;;;;;;;;-3.60;99.90;;;;;;5035259;28;19924;-79
2021/12/22 04:59:11;;;;;;;;;;;-3.60;99.90;;;;;;5036944;28;19917;-80
2021/12/22 05:01:37;;;;;;;;;;;-3.60;99.90;;;;;;5037171;28;19967;-80
2021/12/22 05:04:02;;;;;;;;;;;-3.70;99.90;;;;;;5038849;28;20004;-81
2021/12/22 05:06:28;;;;;;;;;;;-3.70;99.90;;;;;;5038410;28;19920;-80
2021/12/22 05:08:53;;;;;;;;;;;-3.80;99.90;;;;;;5038325;28;20197;-80
2021/12/22 05:11:19;;;;;;;;;;;-3.80;99.90;;;;;;5036415;28;20367;-80
2021/12/22 05:13:45;;;;;;;;;;;-3.80;99.90;;;;;;5037579;28;19925;-79
2021/12/22 05:16:17;;;;;;;;;;;-3.90;99.90;;;;;;5038441;28;19925;-80
2021/12/22 05:18:52;;;;;;;;;;;-3.80;99.90;;;;;;5038257;28;19913;-80
2021/12/22 05:21:21;;;;;;;;;;;-3.80;99.90;;;;;;5038393;28;19913;-80
2021/12/22 05:23:48;;;;;;;;;;;-3.70;99.90;;;;;;5038198;28;19913;-80
2021/12/22 05:26:14;;;;;;;;;;;-3.70;99.90;;;;;;5030351;28;19913;-80
2021/12/22 05:28:39;;;;;;;;;;;-3.80;99.90;;;;;;5038022;28;19913;-80
2021/12/22 05:31:05;;;;;;;;;;;-3.70;99.90;;;;;;5038174;28;19957;-77
2021/12/22 05:33:31;;;;;;;;;;;-3.70;99.90;;;;;;5037770;28;19923;-80
2021/12/22 05:35:56;;;;;;;;;;;-3.70;99.90;;;;;;5024989;28;20319;-81
2021/12/22 05:38:22;;;;;;;;;;;-3.70;99.90;;;;;;5046613;28;19921;-82
2021/12/22 05:40:47;;;;;;;;;;;-3.70;99.90;;;;;;5037287;28;19920;-82
2021/12/22 05:43:13;;;;;;;;;;;-3.70;99.90;;;;;;5035986;28;19917;-82
2021/12/22 05:45:39;;;;;;;;;;;-3.70;99.90;;;;;;5038327;28;20358;-82
2021/12/22 05:48:05;;;;;;;;;;;-3.80;99.90;;;;;;5036895;28;19944;-78
2021/12/22 05:50:30;;;;;;;;;;;-3.70;99.90;;;;;;5037199;28;19920;-82
2021/12/22 05:52:56;;;;;;;;;;;-3.70;99.90;;;;;;5036834;28;19965;-80
2021/12/22 05:55:21;;;;;;;;;;;-3.90;99.90;;;;;;5035612;28;20028;-81
2021/12/22 05:57:47;;;;;;;;;;;-3.80;99.90;;;;;;5033317;28;19913;-81
2021/12/22 06:00:13;;;;;;;;;;;-3.90;99.90;;;;;;5037396;28;19919;-81
2021/12/22 06:02:39;;;;;;;;;;;-3.90;99.90;;;;;;5036699;28;19979;-81
2021/12/22 06:05:05;;;;;;;;;;;-3.90;99.90;;;;;;5036403;28;20343;-76
2021/12/22 06:07:31;;;;;;;;;;;-3.90;99.90;;;;;;5037098;28;19913;-82
2021/12/22 06:09:56;;;;;;;;;;;-3.90;99.90;;;;;;5036509;28;19940;-81
2021/12/22 06:12:22;;;;;;;;;;;-3.90;99.90;;;;;;5037309;28;19929;-81
2021/12/22 06:14:47;;;;;;;;;;;-4.00;99.90;;;;;;5036419;28;19920;-81
2021/12/22 06:17:14;;;;;;;;;;;-3.90;99.90;;;;;;5036078;28;20406;-81
2021/12/22 06:19:39;;;;;;;;;;;-4.00;99.90;;;;;;5049683;28;20019;-81
2021/12/22 06:22:05;;;;;;;;;;;-4.10;99.90;;;;;;5036357;28;20100;-78
2021/12/22 06:24:30;;;;;;;;;;;-4.10;99.90;;;;;;5037034;28;19944;-81
2021/12/22 06:26:57;;;;;;;;;;;-4.10;99.90;;;;;;5036112;28;20323;-80
2021/12/22 06:29:23;;;;;;;;;;;-4.10;99.90;;;;;;5037741;28;19913;-81
2021/12/22 06:31:49;;;;;;;;;;;-4.20;99.90;;;;;;5036107;28;19913;-81
2021/12/22 06:34:14;;;;;;;;;;;-4.20;99.90;;;;;;5037008;28;19944;-79
2021/12/22 06:36:40;;;;;;;;;;;-4.20;99.90;;;;;;5037058;28;19917;-82
2021/12/22 06:39:06;;;;;;;;;;;-4.30;99.90;;;;;;5036706;28;19920;-81
2021/12/22 06:41:32;;;;;;;;;;;-4.30;99.90;;;;;;5032501;28;19917;-81
2021/12/22 06:43:58;;;;;;;;;;;-4.30;99.90;;;;;;5035269;28;19967;-81
2021/12/22 06:46:23;;;;;;;;;;;-4.30;99.90;;;;;;5036983;28;20312;-81
2021/12/22 06:48:49;;;;;;;;;;;-4.30;99.90;;;;;;5037075;28;19920;-81
2021/12/22 06:51:14;;;;;;;;;;;-4.30;99.90;;;;;;5036941;28;19917;-81
2021/12/22 06:53:40;;;;;;;;;;;-4.40;99.90;;;;;;5036903;28;20371;-82
2021/12/22 06:56:06;;;;;;;;;;;-4.30;99.90;;;;;;5044979;28;19956;-83
2021/12/22 06:58:32;;;;;;;;;;;-4.40;99.90;;;;;;5036070;28;19939;-82
2021/12/22 07:00:59;;;;;;;;;;;-4.40;99.90;;;;;;5035817;28;20388;-81
2021/12/22 07:03:24;;;;;;;;;;;-4.30;99.90;;;;;;5035885;28;19913;-79
2021/12/22 07:05:50;;;;;;;;;;;-4.30;99.90;;;;;;5025086;28;19975;-82
2021/12/22 07:08:15;;;;;;;;;;;-4.30;99.90;;;;;;5027824;28;19921;-81
2021/12/22 07:10:41;;;;;;;;;;;-4.40;99.90;;;;;;5028267;28;19913;-82
2021/12/22 07:13:07;;;;;;;;;;;-4.30;99.90;;;;;;5035660;28;19922;-82
2021/12/22 07:15:33;;;;;;;;;;;-4.30;99.90;;;;;;5028770;28;19917;-82
2021/12/22 07:17:58;;;;;;;;;;;-4.30;99.90;;;;;;5021227;28;19928;-82
2021/12/22 07:20:24;;;;;;;;;;;-4.30;99.90;;;;;;5031825;28;19937;-80
2021/12/22 07:22:50;;;;;;;;;;;-4.40;99.90;;;;;;5031274;28;19924;-81
2021/12/22 07:25:18;;;;;;;;;;;-4.40;99.90;;;;;;5021039;28;19918;-81
2021/12/22 07:27:44;;;;;;;;;;;-4.40;99.90;;;;;;5026152;28;20357;-81
2021/12/22 07:30:10;;;;;;;;;;;-4.30;99.90;;;;;;5027099;28;19913;-82
2021/12/22 07:32:36;;;;;;;;;;;-4.40;99.90;;;;;;5023129;28;20592;-80
2021/12/22 07:35:17;;;;;;;;;;;-4.40;99.90;;;;;;5020740;28;19921;-82
2021/12/22 07:37:47;;;;;;;;;;;-4.40;99.90;;;;;;5027346;28;20007;-82
2021/12/22 07:40:15;;;;;;;;;;;-4.40;99.90;;;;;;5024285;28;19913;-82
2021/12/22 07:42:40;;;;;;;;;;;-4.40;99.90;;;;;;5026023;28;19968;-82
2021/12/22 07:45:06;;;;;;;;;;;-4.50;99.90;;;;;;5028455;28;20204;-82
2021/12/22 07:47:32;;;;;;;;;;;-4.50;99.90;;;;;;5029743;28;20227;-81
2021/12/22 07:49:58;;;;;;;;;;;-4.40;99.90;;;;;;5023347;28;19913;-81
2021/12/22 07:52:27;;;;;;;;;;;-4.40;99.90;;;;;;5030764;28;19913;-83
2021/12/22 07:54:53;;;;;;;;;;;-4.40;99.90;;;;;;5025139;28;19913;-82
2021/12/22 07:57:19;;;;;;;;;;;-4.40;99.90;;;;;;5030400;28;19925;-83
2021/12/22 07:59:44;;;;;;;;;;;-4.40;99.90;;;;;;5031341;28;19931;-80
2021/12/22 08:02:12;;;;;;;;;;;-4.30;99.90;;;;;;5027147;28;19924;-80
2021/12/22 08:04:38;;;;;;;;;;;-4.30;99.90;;;;;;5032722;28;20220;-81
2021/12/22 08:07:03;;;;;;;;;;;-4.30;99.90;;;;;;5032119;28;19913;-80
2021/12/22 08:09:29;;;;;;;;;;;-4.20;99.90;;;;;;5021583;28;19924;-81
2021/12/22 08:11:56;;;;;;;;;;;-4.20;99.90;;;;;;5029361;28;19921;-80
2021/12/22 08:14:23;;;;;;;;;;;-4.20;99.90;;;;;;5028697;28;19924;-81
2021/12/22 08:16:49;;;;;;;;;;;-4.20;99.90;;;;;;5027569;28;20372;-80
2021/12/22 08:19:15;;;;;;;;;;;-4.10;99.90;;;;;;5029402;28;19953;-82
2021/12/22 08:21:41;;;;;;;;;;;-4.10;99.90;;;;;;5031975;28;19979;-82
2021/12/22 08:24:06;;;;;;;;;;;-4.10;99.90;;;;;;5028424;28;20212;-80
2021/12/22 08:26:33;;;;;;;;;;;-3.90;99.90;;;;;;5029379;28;20231;-81
2021/12/22 08:28:59;;;;;;;;;;;-4.00;99.90;;;;;;5026200;28;20707;-80
2021/12/22 08:31:25;;;;;;;;;;;-3.90;99.90;;;;;;5031947;28;19909;-78
2021/12/22 08:33:53;;;;;;;;;;;-3.90;99.90;;;;;;5034076;28;19924;-81
2021/12/22 08:39:04;;;;;;;;;;;-3.70;99.90;;;;;;5034603;28;20024;-81
2021/12/22 08:41:31;;;;;;;;;;;-3.60;99.90;;;;;;5033081;28;20308;-81
2021/12/22 08:43:58;;;;;;;;;;;-3.60;99.90;;;;;;5032882;28;19975;-81
2021/12/22 08:46:24;;;;;;;;;;;-3.60;99.90;;;;;;5032199;28;19917;-81
2021/12/22 08:48:49;;;;;;;;;;;-3.50;99.90;;;;;;5034170;28;19953;-81
2021/12/22 08:51:15;;;;;;;;;;;-3.40;99.90;;;;;;5032738;28;19964;-76
2021/12/22 08:53:41;;;;;;;;;;;-3.40;99.90;;;;;;5032905;28;19913;-82
2021/12/22 08:56:06;;;;;;;;;;;-3.40;99.90;;;;;;5033089;28;19924;-80
2021/12/22 08:58:33;;;;;;;;;;;-3.30;99.90;;;;;;5033097;28;19921;-81
2021/12/22 09:00:58;;;;;;;;;;;-3.30;99.90;;;;;;5031640;28;19913;-82
2021/12/22 09:03:24;;;;;;;;;;;-3.20;99.90;;;;;;5011776;28;19940;-81
2021/12/22 09:05:49;;;;;;;;;;;-3.20;99.90;;;;;;5025376;28;19927;-81
2021/12/22 09:08:15;;;;;;;;;;;-3.10;99.90;;;;;;5033076;28;20168;-76
2021/12/22 09:10:40;;;;;;;;;;;-3.10;99.90;;;;;;5026519;28;19917;-81
2021/12/22 09:13:06;;;;;;;;;;;-3.10;99.90;;;;;;5020296;28;19937;-80
2021/12/22 09:15:32;;;;;;;;;;;-3.00;99.90;;;;;;5029463;28;19927;-82
2021/12/22 09:17:58;;;;;;;;;;;-2.90;99.90;;;;;;5025088;28;19948;-81
2021/12/22 09:20:23;;;;;;;;;;;-2.90;99.90;;;;;;5025842;28;19917;-81
2021/12/22 09:22:49;;;;;;;;;;;-2.80;99.90;;;;;;5029153;28;20287;-82
2021/12/22 09:25:15;;;;;;;;;;;-2.70;99.90;;;;;;5027475;28;19917;-80
2021/12/22 09:27:40;;;;;;;;;;;-2.70;99.90;;;;;;5018111;28;19960;-81
2021/12/22 09:30:08;;;;;;;;;;;-2.70;99.90;;;;;;5027329;28;20058;-80
2021/12/22 09:32:33;;;;;;;;;;;-2.60;99.90;;;;;;5029153;28;19917;-81
2021/12/22 09:34:59;;;;;;;;;;;-2.60;99.90;;;;;;5026700;28;20220;-81
2021/12/22 09:37:24;;;;;;;;;;;-2.50;99.90;;;;;;5024762;28;20688;-78
2021/12/22 09:39:50;;;;;;;;;;;-2.50;99.90;;;;;;5024646;28;20004;-81
2021/12/22 09:42:18;;;;;;;;;;;-2.40;99.90;;;;;;5022145;28;20287;-80
2021/12/22 09:44:46;;;;;;;;;;;-2.40;99.90;;;;;;5037052;28;19913;-81
2021/12/22 09:47:13;;;;;;;;;;;-2.30;99.90;;;;;;5034394;28;19917;-80
2021/12/22 09:52:21;;;;;;;;;;;-2.20;99.90;;;;;;5026729;28;19975;-81
2021/12/22 09:54:51;;;;;;;;;;;-2.20;99.90;;;;;;5030333;28;20316;-82
2021/12/22 09:57:18;;;;;;;;;;;-2.10;99.90;;;;;;5025130;28;20213;-80
2021/12/22 09:59:45;;;;;;;;;;;-2.00;99.90;;;;;;5028785;28;19917;-80
2021/12/22 10:02:10;;;;;;;;;;;-1.90;99.90;;;;;;5031034;28;20005;-82
2021/12/22 10:04:36;;;;;;;;;;;-1.90;99.90;;;;;;5022955;28;19953;-81
2021/12/22 10:07:02;;;;;;;;;;;-1.90;99.90;;;;;;5032922;28;19914;-79
2021/12/22 10:09:29;;;;;;;;;;;-1.80;99.90;;;;;;5036975;28;19923;-80
2021/12/22 10:11:55;;;;;;;;;;;-1.70;99.90;;;;;;5023634;28;19921;-79
2021/12/22 10:14:23;;;;;;;;;;;-1.60;99.90;;;;;;5033270;28;20348;-81
2021/12/22 10:16:51;;;;;;;;;;;-1.60;99.90;;;;;;5026298;28;19924;-82
2021/12/22 10:19:17;;;;;;;;;;;-1.50;99.90;;;;;;5028833;28;19917;-81
2021/12/22 10:21:51;;;;;;;;;;;-1.40;99.90;;;;;;5028466;28;19920;-81
2021/12/22 10:24:17;;;;;;;;;;;-1.40;99.90;;;;;;5025296;28;19913;-80
2021/12/22 10:26:43;;;;;;;;;;;-1.30;99.90;;;;;;5028489;28;19924;-82
2021/12/22 10:29:09;;;;;;;;;;;-1.30;99.90;;;;;;5026955;28;19920;-81
2021/12/22 10:31:36;;;;;;;;;;;-1.20;99.90;;;;;;5032888;28;19916;-80
2021/12/22 10:34:05;;;;;;;;;;;-1.10;99.90;;;;;;5044282;28;19936;-80
2021/12/22 10:36:41;;;;;;;;;;;-1.00;99.90;;;;;;5027000;28;19927;-80
2021/12/22 10:39:15;;;;;;;;;;;-1.00;99.90;;;;;;5031330;28;19925;-80
2021/12/22 10:41:41;;;;;;;;;;;-1.00;99.90;;;;;;5026989;28;19924;-80
2021/12/22 10:44:07;;;;;;;;;;;-1.00;99.90;;;;;;5022306;28;19921;-81
2021/12/22 10:46:35;;;;;;;;;;;-0.90;99.90;;;;;;5028241;28;19960;-82
2021/12/22 10:49:14;;;;;;;;;;;-0.90;99.90;;;;;;5025841;28;19963;-82
2021/12/22 10:51:42;;;;;;;;;;;-0.80;99.90;;;;;;5023832;28;19914;-79
2021/12/22 10:54:12;;;;;;;;;;;-0.70;99.90;;;;;;5025591;28;19921;-81
2021/12/22 10:56:39;;;;;;;;;;;-0.70;99.90;;;;;;5020814;28;19925;-81
2021/12/22 10:59:14;;;;;;;;;;;-0.60;99.90;;;;;;5021232;28;20000;-80
2021/12/22 11:01:58;;;;;;;;;;;-0.50;99.90;;;;;;5027125;28;19913;-81
2021/12/22 11:04:27;;;;;;;;;;;-0.40;99.90;;;;;;5025177;28;19913;-82
2021/12/22 11:06:54;;;;;;;;;;;-0.40;99.90;;;;;;5032012;28;19967;-81
2021/12/22 11:09:22;;;;;;;;;;;-0.30;99.90;;;;;;5023232;28;19918;-80
2021/12/22 11:11:51;;;;;;;;;;;-0.30;99.90;;;;;;5026141;28;19971;-81
2021/12/22 11:14:19;;;;;;;;;;;-0.20;99.90;;;;;;5028914;28;19974;-81
2021/12/22 11:16:56;;;;;;;;;;;-0.20;99.90;;;;;;5033437;28;19928;-82
2021/12/22 11:19:23;;;;;;;;;;;-0.20;99.90;;;;;;5023052;28;19918;-81
2021/12/22 11:22:04;;;;;;;;;;;-0.20;99.90;;;;;;5042890;28;19920;-82
2021/12/22 11:24:31;;;;;;;;;;;-0.10;99.90;;;;;;5027643;28;20282;-82
2021/12/22 11:26:57;;;;;;;;;;;-0.10;99.90;;;;;;5034196;28;19948;-82
2021/12/22 11:29:23;;;;;;;;;;;0.00;99.90;;;;;;5034114;28;20263;-82
2021/12/22 11:31:50;;;;;;;;;;;0.10;99.90;;;;;;5036272;28;19946;-82
2021/12/22 11:34:16;;;;;;;;;;;0.10;99.90;;;;;;5028421;28;20347;-82
2021/12/22 11:36:43;;;;;;;;;;;0.20;99.90;;;;;;5032469;28;19926;-83
2021/12/22 11:39:08;;;;;;;;;;;0.30;99.90;;;;;;5026552;28;19913;-82
2021/12/22 11:41:42;;;;;;;;;;;0.30;99.90;;;;;;5043754;28;20055;-83
2021/12/22 11:44:09;;;;;;;;;;;0.30;99.90;;;;;;5021396;28;19917;-82
2021/12/22 11:46:35;;;;;;;;;;;0.40;99.90;;;;;;5025106;28;20338;-79
2021/12/22 11:49:01;;;;;;;;;;;0.40;99.90;;;;;;5027291;28;19913;-83
2021/12/22 11:51:28;;;;;;;;;;;0.40;99.90;;;;;;5039317;28;19917;-83
2021/12/22 11:54:13;;;;;;;;;;;0.40;99.90;;;;;;5035486;28;20326;-83
2021/12/22 11:56:46;;;;;;;;;;;0.40;99.90;;;;;;5044371;28;19955;-84
2021/12/22 11:59:38;;;;;;;;;;;0.50;99.90;;;;;;5028870;28;19917;-83
2021/12/22 12:02:16;;;;;;;;;;;0.50;99.90;;;;;;5027095;28;20296;-83
2021/12/22 12:04:42;;;;;;;;;;;0.60;99.90;;;;;;5027513;28;20509;-83
2021/12/22 12:07:08;;;;;;;;;;;0.60;99.90;;;;;;5029144;28;19917;-84
2021/12/22 12:09:33;;;;;;;;;;;0.60;99.90;;;;;;5028714;28;19917;-83
2021/12/22 12:12:04;;;;;;;;;;;0.70;99.90;;;;;;5029269;28;20328;-82
2021/12/22 12:14:35;;;;;;;;;;;0.70;99.90;;;;;;5028250;28;19913;-82
2021/12/22 12:23:17;;;;;;;;;;;0.80;99.90;;;;;;5023683;28;19920;-83
2021/12/22 12:25:42;;;;;;;;;;;0.70;99.90;;;;;;5026031;28;20297;-82
2021/12/22 12:28:15;;;;;;;;;;;0.70;99.90;;;;;;5026454;28;19953;-82
2021/12/22 12:30:41;;;;;;;;;;;0.80;99.90;;;;;;5026047;28;19928;-83
2021/12/22 12:33:07;;;;;;;;;;;0.80;99.90;;;;;;5030881;28;20386;-81
2021/12/22 12:35:34;;;;;;;;;;;0.80;99.90;;;;;;5042397;28;19917;-82
2021/12/22 12:38:05;;;;;;;;;;;0.80;99.90;;;;;;5025300;28;19917;-82
2021/12/22 12:40:49;;;;;;;;;;;0.80;99.90;;;;;;5025553;28;20324;-81
2021/12/22 12:43:14;;;;;;;;;;;0.90;99.90;;;;;;5025728;28;19917;-81
2021/12/22 12:45:44;;;;;;;;;;;0.80;99.90;;;;;;5026407;28;20628;-82
2021/12/22 12:48:26;;;;;;;;;;;0.80;99.90;;;;;;5028057;28;20058;-82
2021/12/22 12:51:24;;;;;;;;;;;0.80;99.90;;;;;;5027384;28;19924;-82
2021/12/22 12:53:51;;;;;;;;;;;0.80;99.90;;;;;;5041852;28;20015;-81
2021/12/22 12:56:17;;;;;;;;;;;0.80;99.90;;;;;;5024999;28;19971;-81
2021/12/22 12:58:54;;;;;;;;;;;0.80;99.90;;;;;;5027067;28;19944;-81
2021/12/22 13:01:38;;;;;;;;;;;0.80;99.90;;;;;;5025964;28;20292;-81
2021/12/22 13:04:18;;;;;;;;;;;0.80;99.90;;;;;;5030779;28;19921;-82
2021/12/22 13:06:44;;;;;;;;;;;0.80;99.90;;;;;;5030647;28;19924;-82
2021/12/22 13:09:29;;;;;;;;;;;0.80;99.90;;;;;;5025657;28;19917;-82
2021/12/22 13:12:02;;;;;;;;;;;0.80;99.90;;;;;;5024584;28;19917;-80
2021/12/22 13:17:13;;;;;;;;;;;0.80;99.90;;;;;;5028603;28;20034;-81
2021/12/22 13:19:40;;;;;;;;;;;0.80;99.90;;;;;;5029052;28;20513;-81
2021/12/22 13:22:35;;;;;;;;;;;0.70;99.90;;;;;;5018156;28;19939;-78
2021/12/22 13:25:09;;;;;;;;;;;0.70;99.90;;;;;;5008617;28;19952;-81
2021/12/22 13:27:35;;;;;;;;;;;0.60;99.90;;;;;;5008384;28;20235;-80
2021/12/22 13:30:06;;;;;;;;;;;0.70;99.90;;;;;;4998456;28;19949;-81
2021/12/22 13:32:32;;;;;;;;;;;0.70;99.90;;;;;;5007119;28;19917;-81
2021/12/22 13:35:01;;;;;;;;;;;0.70;99.90;;;;;;5008037;28;19933;-81
2021/12/22 13:37:27;;;;;;;;;;;0.70;99.90;;;;;;5004734;28;19949;-80
2021/12/22 13:39:53;;;;;;;;;;;0.60;99.90;;;;;;4993283;28;19913;-81
2021/12/22 13:42:18;;;;;;;;;;;0.60;99.90;;;;;;5005007;28;19941;-81
2021/12/22 13:44:44;;;;;;;;;;;0.50;99.90;;;;;;5011593;28;20004;-81
2021/12/22 13:47:09;;;;;;;;;;;0.50;99.90;;;;;;5007404;28;20053;-81
2021/12/22 13:49:35;;;;;;;;;;;0.50;99.90;;;;;;5013788;28;19913;-81
2021/12/22 13:52:02;;;;;;;;;;;0.50;99.90;;;;;;5010982;28;19922;-81
2021/12/22 13:54:29;;;;;;;;;;;0.50;99.90;;;;;;4995698;28;19964;-81
2021/12/22 13:57:07;;;;;;;;;;;0.50;99.90;;;;;;5011816;28;19926;-80
2021/12/22 13:59:34;;;;;;;;;;;0.40;99.90;;;;;;5013164;28;19914;-81
2021/12/22 14:02:00;;;;;;;;;;;0.40;99.90;;;;;;5026828;28;19917;-81
2021/12/22 14:04:30;;;;;;;;;;;0.40;99.90;;;;;;5032993;28;20023;-80
2021/12/22 14:07:06;;;;;;;;;;;0.40;99.90;;;;;;5029364;28;19918;-79
2021/12/22 14:09:34;;;;;;;;;;;0.30;99.90;;;;;;5026857;28;19959;-81
2021/12/22 14:11:59;;;;;;;;;;;0.20;99.90;;;;;;5031473;28;19921;-80
2021/12/22 14:14:34;;;;;;;;;;;0.20;99.90;;;;;;5031880;28;19940;-78
2021/12/22 14:17:02;;;;;;;;;;;0.20;99.90;;;;;;5030073;28;19924;-80
2021/12/22 14:19:28;;;;;;;;;;;0.10;99.90;;;;;;5031968;28;20304;-81
2021/12/22 14:22:00;;;;;;;;;;;0.10;99.90;;;;;;5028964;28;19921;-80
2021/12/22 14:24:39;;;;;;;;;;;0.10;99.90;;;;;;5032503;28;19914;-80
2021/12/22 14:27:06;;;;;;;;;;;0.00;99.90;;;;;;5033231;28;20508;-77
2021/12/22 14:29:32;;;;;;;;;;;0.00;99.90;;;;;;5029921;28;20301;-81
2021/12/22 14:32:03;;;;;;;;;;;0.00;99.90;;;;;;5032759;28;19913;-81
2021/12/22 14:34:29;;;;;;;;;;;-0.10;99.90;;;;;;5021891;28;19917;-80
2021/12/22 14:36:55;;;;;;;;;;;-0.10;99.90;;;;;;5036672;28;20246;-80
2021/12/22 14:39:37;;;;;;;;;;;-0.10;99.90;;;;;;5034340;28;20323;-80
2021/12/22 14:42:17;;;;;;;;;;;-0.10;99.90;;;;;;5029127;28;20016;-80
2021/12/22 14:44:42;;;;;;;;;;;-0.20;99.90;;;;;;5028466;28;19913;-81